createdAt,value
2022-09-09T00:02:05.213Z,0.90
2022-09-09T00:04:38.310Z,0.80
2022-09-09T00:07:07.504Z,0.80
2022-09-09T00:09:46.981Z,0.77
2022-09-09T00:12:16.570Z,0.80
2022-09-09T00:14:57.309Z,1.00
2022-09-09T00:17:37.889Z,1.03
2022-09-09T00:20:13.794Z,0.90
2022-09-09T00:22:52.322Z,0.93
2022-09-09T00:25:35.049Z,0.90
2022-09-09T00:28:02.146Z,0.90
2022-09-09T00:30:35.069Z,0.93
2022-09-09T00:33:13.994Z,0.80
2022-09-09T00:35:45.615Z,1.00
2022-09-09T00:38:20.293Z,1.40
2022-09-09T00:40:53.343Z,0.80
2022-09-09T00:43:50.606Z,0.80
2022-09-09T00:46:47.094Z,1.07
2022-09-09T00:49:44.181Z,0.90
2022-09-09T00:52:40.506Z,0.60
2022-09-09T00:55:17.099Z,0.80
2022-09-09T00:57:43.924Z,0.77
2022-09-09T01:00:23.826Z,1.00
2022-09-09T01:02:56.736Z,1.13
2022-09-09T01:05:29.018Z,1.00
2022-09-09T01:07:58.371Z,0.80
2022-09-09T01:10:48.605Z,0.80
2022-09-09T01:13:26.811Z,0.80
2022-09-09T01:15:59.668Z,0.70
2022-09-09T01:18:38.077Z,1.10
2022-09-09T01:21:20.278Z,0.60
2022-09-09T01:24:24.816Z,0.60
2022-09-09T01:27:07.497Z,0.60
2022-09-09T01:29:34.418Z,0.80
2022-09-09T01:32:04.309Z,0.70
2022-09-09T01:34:36.982Z,0.63
2022-09-09T01:37:08.856Z,0.63
2022-09-09T01:39:39.794Z,0.60
2022-09-09T01:42:13.469Z,0.50
2022-09-09T01:44:40.896Z,0.47
2022-09-09T01:47:08.617Z,0.70
2022-09-09T01:49:42.219Z,0.60
2022-09-09T01:52:19.145Z,0.60
2022-09-09T01:54:45.890Z,0.53
2022-09-09T01:57:28.851Z,0.63
2022-09-09T02:00:16.347Z,0.70
2022-09-09T02:03:01.430Z,0.60
2022-09-09T02:05:40.489Z,0.60
2022-09-09T02:08:36.454Z,0.60
2022-09-09T02:11:18.512Z,0.70
2022-09-09T02:14:19.019Z,0.50
2022-09-09T02:16:53.414Z,0.60
2022-09-09T02:19:28.447Z,0.60
2022-09-09T02:22:07.469Z,0.73
2022-09-09T02:24:37.430Z,0.60
2022-09-09T02:27:15.476Z,0.70
2022-09-09T02:29:44.150Z,0.70
2022-09-09T02:32:17.789Z,0.60
2022-09-09T02:34:48.981Z,0.90
2022-09-09T02:37:20.128Z,0.70
2022-09-09T02:39:50.579Z,0.50
2022-09-09T02:42:20.346Z,0.60
2022-09-09T02:44:47.274Z,0.70
2022-09-09T02:47:29.629Z,0.70
2022-09-09T02:50:33.658Z,0.87
2022-09-09T02:53:14.177Z,0.90
2022-09-09T02:55:56.436Z,0.53
2022-09-09T02:58:25.220Z,0.80
2022-09-09T03:00:58.856Z,0.70
2022-09-09T03:03:26.638Z,0.60
2022-09-09T03:05:53.581Z,0.90
2022-09-09T03:08:20.357Z,0.67
2022-09-09T03:10:48.570Z,0.80
2022-09-09T03:13:16.199Z,0.80
2022-09-09T03:15:44.379Z,0.50
2022-09-09T03:18:15.789Z,0.60
2022-09-09T03:20:43.224Z,0.60
2022-09-09T03:23:15.537Z,0.53
2022-09-09T03:25:53.246Z,0.60
2022-09-09T03:28:32.026Z,0.60
2022-09-09T03:31:01.739Z,0.70
2022-09-09T03:33:32.066Z,0.60
2022-09-09T03:35:58.969Z,0.70
2022-09-09T03:38:25.932Z,0.70
2022-09-09T03:40:56.499Z,0.63
2022-09-09T03:43:24.415Z,0.70
2022-09-09T03:45:53.695Z,0.50
2022-09-09T03:48:20.822Z,0.70
2022-09-09T03:50:52.594Z,0.60
2022-09-09T03:53:21.761Z,0.70
2022-09-09T03:55:50.965Z,0.70
2022-09-09T03:58:20.840Z,0.50
2022-09-09T04:01:14.810Z,0.63
2022-09-09T04:03:43.648Z,1.03
2022-09-09T04:06:14.327Z,0.70
2022-09-09T04:08:42.634Z,0.70
2022-09-09T04:11:10.826Z,0.70
2022-09-09T04:13:39.999Z,0.60
2022-09-09T04:16:11.389Z,0.77
2022-09-09T04:18:38.734Z,0.80
2022-09-09T04:21:07.489Z,0.80
2022-09-09T04:23:35.722Z,0.70
2022-09-09T04:26:03.715Z,0.80
2022-09-09T04:28:35.360Z,0.63
2022-09-09T04:31:12.148Z,0.50
2022-09-09T04:33:40.657Z,0.50
2022-09-09T04:36:09.546Z,0.50
2022-09-09T04:38:36.986Z,0.60
2022-09-09T04:41:04.819Z,0.70
2022-09-09T04:43:32.963Z,0.70
2022-09-09T04:46:02.074Z,0.60
2022-09-09T04:48:28.891Z,0.70
2022-09-09T04:51:00.514Z,0.70
2022-09-09T04:53:28.021Z,0.57
2022-09-09T04:56:11.152Z,0.80
2022-09-09T04:58:43.899Z,0.80
2022-09-09T05:01:20.080Z,0.60
2022-09-09T05:03:49.065Z,0.63
2022-09-09T05:06:23.124Z,0.73
2022-09-09T05:08:54.077Z,0.70
2022-09-09T05:11:27.746Z,0.63
2022-09-09T05:13:59.593Z,0.60
2022-09-09T05:16:28.515Z,0.70
2022-09-09T05:18:55.943Z,0.70
2022-09-09T05:21:24.885Z,0.83
2022-09-09T05:23:52.336Z,1.10
2022-09-09T05:26:22.104Z,0.70
2022-09-09T05:28:51.021Z,0.90
2022-09-09T05:31:19.827Z,1.00
2022-09-09T05:33:50.525Z,0.70
2022-09-09T05:36:20.079Z,0.70
2022-09-09T05:38:50.768Z,0.97
2022-09-09T05:41:18.343Z,0.60
2022-09-09T05:43:47.738Z,0.83
2022-09-09T05:46:20.943Z,0.90
2022-09-09T05:48:52.893Z,0.97
2022-09-09T05:51:23.588Z,0.87
2022-09-09T05:53:51.905Z,0.63
2022-09-09T05:56:26.006Z,0.70
2022-09-09T05:58:54.860Z,0.90
2022-09-09T06:01:25.820Z,1.10
2022-09-09T06:03:53.464Z,0.80
2022-09-09T06:06:27.130Z,0.70
2022-09-09T06:09:00.529Z,1.00
2022-09-09T06:11:33.926Z,0.60
2022-09-09T06:14:01.333Z,0.80
2022-09-09T06:16:33.644Z,0.77
2022-09-09T06:19:01.615Z,1.47
2022-09-09T06:21:34.962Z,0.70
2022-09-09T06:24:02.919Z,1.00
2022-09-09T06:26:34.854Z,0.70
2022-09-09T06:29:04.847Z,0.70
2022-09-09T06:31:35.537Z,0.73
2022-09-09T06:34:09.750Z,1.03
2022-09-09T06:36:40.957Z,0.80
2022-09-09T06:39:14.640Z,0.83
2022-09-09T06:41:43.641Z,0.60
2022-09-09T06:44:32.189Z,1.10
2022-09-09T06:47:01.472Z,0.77
2022-09-09T06:49:28.290Z,0.60
2022-09-09T06:51:55.475Z,0.80
2022-09-09T06:54:24.722Z,0.83
2022-09-09T06:56:51.934Z,1.00
2022-09-09T06:59:23.326Z,1.40
2022-09-09T07:01:56.013Z,0.80
2022-09-09T07:04:23.526Z,1.10
2022-09-09T07:06:50.347Z,0.80
2022-09-09T07:09:21.799Z,0.77
2022-09-09T07:11:53.529Z,0.63
2022-09-09T07:14:22.983Z,1.00
2022-09-09T07:16:59.518Z,1.07
2022-09-09T07:19:27.714Z,0.70
2022-09-09T07:21:55.930Z,0.60
2022-09-09T07:24:24.871Z,1.00
2022-09-09T07:26:52.966Z,0.80
2022-09-09T07:29:20.999Z,0.87
2022-09-09T07:31:49.488Z,0.80
2022-09-09T07:34:22.051Z,1.10
2022-09-09T07:36:49.775Z,0.67
2022-09-09T07:39:18.910Z,1.10
2022-09-09T07:41:50.657Z,0.80
2022-09-09T07:44:23.367Z,1.00
2022-09-09T07:47:04.270Z,1.10
2022-09-09T07:49:36.833Z,0.93
2022-09-09T07:52:05.204Z,0.80
2022-09-09T07:54:33.199Z,1.00
2022-09-09T07:57:01.350Z,0.97
2022-09-09T07:59:30.923Z,1.13
2022-09-09T08:01:59.373Z,0.77
2022-09-09T08:04:29.283Z,0.60
2022-09-09T08:06:59.394Z,0.90
2022-09-09T08:09:29.911Z,0.97
2022-09-09T08:12:07.732Z,1.00
2022-09-09T08:14:36.370Z,1.17
2022-09-09T08:17:03.671Z,1.20
2022-09-09T08:19:34.932Z,1.10
2022-09-09T08:22:03.882Z,1.00
2022-09-09T08:24:31.953Z,1.20
2022-09-09T08:26:58.982Z,0.97
2022-09-09T08:29:25.804Z,0.90
2022-09-09T08:31:58.023Z,1.10
2022-09-09T08:34:28.049Z,0.80
2022-09-09T08:36:56.765Z,0.85
2022-09-09T08:39:30.505Z,0.77
2022-09-09T08:42:02.150Z,0.70
2022-09-09T08:44:58.365Z,0.60
2022-09-09T08:47:40.199Z,0.70
2022-09-09T08:50:51.628Z,0.50
2022-09-09T08:53:32.454Z,0.80
2022-09-09T08:56:12.519Z,0.75
2022-09-09T08:58:51.253Z,0.70
2022-09-09T09:01:44.625Z,0.70
2022-09-09T09:04:30.936Z,0.68
2022-09-09T09:07:09.250Z,0.70
2022-09-09T09:09:54.826Z,0.47
2022-09-09T09:12:25.284Z,0.50
2022-09-09T09:14:53.345Z,0.90
2022-09-09T09:17:22.423Z,0.88
2022-09-09T09:19:50.644Z,0.60
2022-09-09T09:22:22.124Z,0.75
2022-09-09T09:24:57.033Z,0.70
2022-09-09T09:27:36.353Z,0.75
2022-09-09T09:30:29.450Z,0.77
2022-09-09T09:33:06.916Z,0.68
2022-09-09T09:35:38.597Z,0.60
2022-09-09T09:41:13.221Z,0.70
2022-09-09T09:43:43.543Z,0.68
2022-09-09T09:46:24.185Z,0.80
2022-09-09T09:49:06.829Z,0.70
2022-09-09T09:51:35.419Z,0.75
2022-09-09T09:54:14.485Z,0.65
2022-09-09T09:56:44.496Z,0.70
2022-09-09T09:59:39.267Z,0.52
2022-09-09T10:02:25.617Z,0.50
2022-09-09T10:05:26.321Z,0.68
2022-09-09T10:08:26.141Z,0.40
2022-09-09T10:11:25.390Z,0.50
2022-09-09T10:14:08.320Z,0.95
2022-09-09T10:17:03.179Z,0.50
2022-09-09T10:19:35.206Z,0.60
2022-09-09T10:22:26.753Z,0.60
2022-09-09T10:25:17.480Z,0.60
2022-09-09T10:28:06.111Z,0.40
2022-09-09T10:31:05.445Z,0.70
2022-09-09T10:33:58.385Z,0.60
2022-09-09T10:36:27.091Z,0.70
2022-09-09T10:39:06.276Z,0.55
2022-09-09T10:41:58.418Z,0.40
2022-09-09T10:44:40.041Z,0.60
2022-09-09T10:47:19.480Z,0.85
2022-09-09T10:50:19.620Z,0.70
2022-09-09T10:53:17.658Z,0.88
2022-09-09T10:55:49.485Z,0.60
2022-09-09T10:58:28.486Z,0.52
2022-09-09T11:01:05.167Z,0.70
2022-09-09T11:03:34.287Z,0.50
2022-09-09T11:06:14.196Z,0.80
2022-09-09T11:08:41.074Z,0.57
2022-09-09T11:11:23.103Z,0.60
2022-09-09T11:13:52.841Z,0.60
2022-09-09T11:16:43.064Z,0.80
2022-09-09T11:19:35.051Z,0.52
2022-09-09T11:22:16.778Z,0.60
2022-09-09T11:24:55.698Z,0.70
2022-09-09T11:27:34.220Z,0.70
2022-09-09T11:30:44.049Z,0.50
2022-09-09T11:33:35.064Z,0.57
2022-09-09T11:36:28.462Z,0.60
2022-09-09T11:39:33.811Z,0.50
2022-09-09T11:42:19.749Z,0.60
2022-09-09T11:44:47.172Z,0.65
2022-09-09T11:47:30.012Z,0.80
2022-09-09T11:50:10.314Z,0.80
2022-09-09T11:52:40.097Z,0.60
2022-09-09T11:55:34.174Z,0.75
2022-09-09T11:58:02.434Z,0.52
2022-09-09T12:00:50.997Z,0.68
2022-09-09T12:03:44.246Z,0.80
2022-09-09T12:06:36.245Z,0.60
2022-09-09T12:09:32.019Z,0.60
2022-09-09T12:12:14.049Z,0.60
2022-09-09T12:14:44.151Z,0.50
2022-09-09T12:17:22.985Z,0.50
2022-09-09T12:20:09.609Z,0.40
2022-09-09T12:22:41.426Z,0.45
2022-09-09T12:25:33.213Z,0.40
2022-09-09T12:28:13.118Z,0.50
2022-09-09T12:30:54.254Z,0.40
2022-09-09T12:33:22.785Z,0.50
2022-09-09T12:35:58.012Z,0.40
2022-09-09T12:38:40.387Z,0.40
2022-09-09T12:41:07.792Z,0.60
2022-09-09T12:43:34.772Z,0.47
2022-09-09T12:46:11.700Z,0.40
2022-09-09T12:48:45.172Z,0.45
2022-09-09T12:51:26.217Z,0.85
2022-09-09T12:53:53.734Z,0.50
2022-09-09T12:56:23.830Z,0.40
2022-09-09T12:58:52.775Z,0.50
2022-09-09T13:01:37.263Z,0.50
2022-09-09T13:04:04.065Z,0.60
2022-09-09T13:06:32.945Z,0.35
2022-09-09T13:09:02.103Z,0.43
2022-09-09T13:11:40.604Z,0.93
2022-09-09T13:14:07.593Z,0.50
2022-09-09T13:16:40.484Z,0.50
2022-09-09T13:19:15.844Z,0.35
2022-09-09T13:21:43.545Z,0.35
2022-09-09T13:24:30.417Z,0.20
2022-09-09T13:27:05.118Z,0.47
2022-09-09T13:29:33.423Z,0.40
2022-09-09T13:32:13.514Z,0.40
2022-09-09T13:34:40.822Z,0.40
2022-09-09T13:37:18.598Z,0.55
2022-09-09T13:39:54.069Z,0.30
2022-09-09T13:42:33.413Z,0.38
2022-09-09T13:45:01.045Z,0.40
2022-09-09T13:47:37.547Z,0.45
2022-09-09T13:50:25.606Z,0.60
2022-09-09T13:52:59.172Z,0.40
2022-09-09T13:55:30.541Z,0.32
2022-09-09T13:58:02.087Z,0.52
2022-09-09T14:00:34.102Z,0.43
2022-09-09T14:03:04.082Z,0.40
2022-09-09T14:05:34.623Z,0.38
2022-09-09T14:08:01.913Z,0.40
2022-09-09T14:10:28.776Z,0.43
2022-09-09T14:12:55.552Z,0.40
2022-09-09T14:15:22.939Z,0.43
2022-09-09T14:17:50.018Z,0.38
2022-09-09T14:20:18.452Z,0.38
2022-09-09T14:22:45.196Z,0.38
2022-09-09T14:25:14.323Z,0.43
2022-09-09T14:27:41.645Z,0.40
2022-09-09T14:30:09.754Z,0.40
2022-09-09T14:32:36.496Z,0.93
2022-09-09T14:35:03.501Z,0.50
2022-09-09T14:37:31.970Z,0.50
2022-09-09T14:39:59.043Z,0.40
2022-09-09T14:42:26.946Z,0.60
2022-09-09T14:44:54.029Z,0.30
2022-09-09T14:47:20.676Z,0.60
2022-09-09T14:49:50.437Z,0.40
2022-09-09T14:52:17.665Z,0.40
2022-09-09T14:54:44.337Z,0.40
2022-09-09T14:57:11.098Z,0.50
2022-09-09T14:59:37.945Z,0.50
2022-09-09T15:02:05.560Z,0.50
2022-09-09T15:04:32.647Z,0.60
2022-09-09T15:06:59.884Z,0.43
2022-09-09T15:09:26.696Z,0.50
2022-09-09T15:11:53.570Z,0.53
2022-09-09T15:14:22.544Z,0.40
2022-09-09T15:16:52.265Z,0.50
2022-09-09T15:19:19.138Z,0.40
2022-09-09T15:21:45.756Z,0.40
2022-09-09T15:24:14.561Z,0.40
2022-09-09T15:26:41.329Z,0.50
2022-09-09T15:29:08.990Z,0.37
2022-09-09T15:31:36.479Z,0.60
2022-09-09T15:34:05.924Z,0.70
2022-09-09T15:36:34.081Z,0.40
2022-09-09T15:39:01.762Z,0.50
2022-09-09T15:41:29.237Z,0.40
2022-09-09T15:44:01.379Z,0.40
2022-09-09T15:46:45.506Z,0.30
2022-09-09T15:49:14.602Z,0.50
2022-09-09T15:51:46.294Z,0.50
2022-09-09T15:54:15.589Z,0.40
2022-09-09T15:56:42.839Z,0.50
2022-09-09T15:59:10.094Z,0.50
2022-09-09T16:01:37.227Z,0.40
2022-09-09T16:04:04.827Z,0.57
2022-09-09T16:06:32.472Z,0.50
2022-09-09T16:09:01.988Z,0.50
2022-09-09T16:11:32.029Z,0.50
2022-09-09T16:13:59.446Z,0.30
2022-09-09T16:16:28.730Z,0.50
2022-09-09T16:19:07.048Z,0.40
2022-09-09T16:21:36.589Z,0.57
2022-09-09T16:24:05.673Z,0.30
2022-09-09T16:26:34.861Z,0.30
2022-09-09T16:29:03.786Z,0.37
2022-09-09T16:31:33.046Z,0.30
2022-09-09T16:34:00.230Z,0.30
2022-09-09T16:36:30.878Z,0.40
2022-09-09T16:39:00.111Z,0.30
2022-09-09T16:41:28.854Z,0.20
2022-09-09T16:44:07.177Z,0.30
2022-09-09T16:46:40.349Z,0.20
2022-09-09T16:49:09.868Z,0.20
2022-09-09T16:51:43.369Z,0.30
2022-09-09T16:54:11.769Z,0.40
2022-09-09T16:56:44.003Z,0.10
2022-09-09T16:59:19.764Z,0.40
2022-09-09T17:01:48.656Z,0.40
2022-09-09T17:04:21.623Z,0.30
2022-09-09T17:06:50.324Z,0.40
2022-09-09T17:09:17.866Z,0.30
2022-09-09T17:11:46.359Z,0.43
2022-09-09T17:14:17.122Z,0.20
2022-09-09T17:16:44.585Z,0.30
2022-09-09T17:19:11.976Z,0.33
2022-09-09T17:21:54.648Z,0.40
2022-09-09T17:24:29.990Z,0.30
2022-09-09T17:26:58.867Z,0.50
2022-09-09T17:29:26.698Z,0.40
2022-09-09T17:31:53.984Z,0.30
2022-09-09T17:34:21.014Z,0.40
2022-09-09T17:36:48.025Z,0.40
2022-09-09T17:39:14.761Z,0.33
2022-09-09T17:41:42.046Z,0.37
2022-09-09T17:44:10.809Z,0.40
2022-09-09T17:46:41.254Z,0.37
2022-09-09T17:49:14.460Z,0.67
2022-09-09T17:51:43.073Z,0.40
2022-09-09T17:54:13.248Z,0.30
2022-09-09T17:56:42.074Z,0.60
2022-09-09T17:59:10.381Z,0.60
2022-09-09T18:01:40.434Z,0.40
2022-09-09T18:04:09.395Z,0.40
2022-09-09T18:06:39.732Z,0.40
2022-09-09T18:09:13.420Z,0.40
2022-09-09T18:11:46.001Z,0.37
2022-09-09T18:14:21.304Z,0.40
2022-09-09T18:16:48.843Z,0.40
2022-09-09T18:19:19.340Z,0.40
2022-09-09T18:21:46.610Z,0.50
2022-09-09T18:24:14.495Z,0.40
2022-09-09T18:26:41.858Z,0.40
2022-09-09T18:29:14.493Z,0.40
2022-09-09T18:31:44.609Z,0.50
2022-09-09T18:34:14.451Z,0.23
2022-09-09T18:36:46.784Z,0.70
2022-09-09T18:39:15.765Z,0.97
2022-09-09T18:41:52.197Z,0.87
2022-09-09T18:44:22.434Z,0.30
2022-09-09T18:46:50.094Z,0.40
2022-09-09T18:49:17.009Z,0.50
2022-09-09T18:51:46.407Z,0.40
2022-09-09T18:54:14.670Z,0.93
2022-09-09T18:56:42.230Z,0.40
2022-09-09T18:59:12.420Z,0.37
2022-09-09T19:01:39.772Z,0.43
2022-09-09T19:04:08.025Z,0.30
2022-09-09T19:06:39.571Z,0.73
2022-09-09T19:09:09.305Z,0.60
2022-09-09T19:11:36.054Z,0.50
2022-09-09T19:14:05.013Z,0.50
2022-09-09T19:16:34.037Z,0.50
2022-09-09T19:19:03.004Z,0.70
2022-09-09T19:21:33.850Z,0.40
2022-09-09T19:24:06.647Z,0.60
2022-09-09T19:26:40.669Z,0.60
2022-09-09T19:29:10.073Z,0.60
2022-09-09T19:31:38.172Z,0.57
2022-09-09T19:34:05.518Z,0.43
2022-09-09T19:36:32.333Z,0.40
2022-09-09T19:39:00.217Z,0.60
2022-09-09T19:41:28.276Z,0.50
2022-09-09T19:44:01.859Z,0.60
2022-09-09T19:46:30.638Z,0.53
2022-09-09T19:48:58.933Z,0.50
2022-09-09T19:51:26.759Z,0.83
2022-09-09T19:54:09.204Z,0.27
2022-09-09T19:56:38.821Z,0.43
2022-09-09T19:59:07.624Z,0.67
2022-09-09T20:01:40.198Z,0.40
2022-09-09T20:04:08.568Z,0.60
2022-09-09T20:06:38.810Z,0.60
2022-09-09T20:09:07.696Z,0.60
2022-09-09T20:11:34.519Z,0.57
2022-09-09T20:14:01.517Z,0.50
2022-09-09T20:16:31.055Z,0.70
2022-09-09T20:19:02.914Z,0.60
2022-09-09T20:21:35.653Z,0.77
2022-09-09T20:24:05.905Z,0.80
2022-09-09T20:26:37.676Z,0.60
2022-09-09T20:29:06.649Z,0.60
2022-09-09T20:31:40.019Z,0.63
2022-09-09T20:34:12.622Z,0.60
2022-09-09T20:36:41.255Z,0.77
2022-09-09T20:39:11.783Z,0.50
2022-09-09T20:41:40.386Z,0.90
2022-09-09T20:44:18.450Z,0.70
2022-09-09T20:46:49.866Z,0.60
2022-09-09T20:49:19.627Z,0.53
2022-09-09T20:51:48.036Z,0.70
2022-09-09T20:54:23.239Z,0.73
2022-09-09T20:56:51.515Z,0.60
2022-09-09T20:59:21.429Z,0.60
2022-09-09T21:01:48.845Z,0.57
2022-09-09T21:04:17.439Z,0.53
2022-09-09T21:06:44.902Z,0.50
2022-09-09T21:09:12.241Z,0.60
2022-09-09T21:11:39.173Z,0.63
2022-09-09T21:14:06.266Z,0.70
2022-09-09T21:16:33.390Z,0.73
2022-09-09T21:19:00.293Z,0.90
2022-09-09T21:21:27.525Z,0.70
2022-09-09T21:23:57.315Z,0.93
2022-09-09T21:26:24.854Z,0.60
2022-09-09T21:28:51.591Z,0.73
2022-09-09T21:31:19.842Z,0.67
2022-09-09T21:33:47.264Z,0.53
2022-09-09T21:36:15.021Z,0.60
2022-09-09T21:38:42.428Z,0.60
2022-09-09T21:41:12.924Z,0.80
2022-09-09T21:43:41.855Z,0.70
2022-09-09T21:46:10.752Z,0.70
2022-09-09T21:48:37.560Z,0.60
2022-09-09T21:51:10.746Z,0.93
2022-09-09T21:53:38.500Z,0.80
2022-09-09T21:56:10.242Z,0.70
2022-09-09T21:58:37.647Z,1.10
2022-09-09T22:01:16.995Z,0.60
2022-09-09T22:03:44.738Z,0.90
2022-09-09T22:06:16.834Z,0.70
2022-09-09T22:08:44.700Z,0.73
2022-09-09T22:11:14.567Z,0.80
2022-09-09T22:13:42.763Z,0.80
2022-09-09T22:16:12.213Z,0.73
2022-09-09T22:18:39.498Z,1.00
2022-09-09T22:21:08.926Z,0.83
2022-09-09T22:23:36.661Z,1.03
2022-09-09T22:26:04.402Z,0.87
2022-09-09T22:28:31.780Z,0.60
2022-09-09T22:30:58.546Z,0.60
2022-09-09T22:33:25.749Z,0.90
2022-09-09T22:35:52.485Z,1.00
2022-09-09T22:38:20.378Z,0.63
2022-09-09T22:40:47.785Z,0.70
2022-09-09T22:43:17.801Z,0.60
2022-09-09T22:45:44.616Z,0.73
2022-09-09T22:48:13.357Z,0.90
2022-09-09T22:50:42.632Z,0.90
2022-09-09T22:53:13.311Z,0.90
2022-09-09T22:55:40.349Z,0.80
2022-09-09T22:58:07.077Z,0.70
2022-09-09T23:00:33.831Z,0.80
2022-09-09T23:03:00.927Z,0.70
2022-09-09T23:05:27.697Z,0.70
2022-09-09T23:07:58.086Z,0.63
2022-09-09T23:10:25.014Z,0.80
2022-09-09T23:12:52.429Z,0.80
2022-09-09T23:15:19.771Z,0.70
2022-09-09T23:17:46.488Z,0.80
2022-09-09T23:20:13.669Z,0.80
2022-09-09T23:22:40.377Z,0.60
2022-09-09T23:25:07.814Z,0.87
2022-09-09T23:27:35.726Z,0.80
2022-09-09T23:30:02.520Z,0.90
2022-09-09T23:32:29.201Z,0.70
2022-09-09T23:34:56.505Z,0.77
2022-09-09T23:37:23.094Z,0.83
2022-09-09T23:39:49.962Z,0.80
2022-09-09T23:42:16.572Z,0.80
2022-09-09T23:44:43.493Z,0.70
2022-09-09T23:47:10.132Z,0.80
2022-09-09T23:49:40.132Z,0.80
2022-09-09T23:52:07.216Z,0.80
2022-09-09T23:54:35.135Z,0.80
2022-09-09T23:57:03.327Z,0.60
2022-09-09T23:59:30.978Z,1.23
